Impacts TAF Board INFO
IDs:

KORD - Chicago/O'Hare Intl, IL, US

Issued at 2327 UTC 03 Dec 2016
Updated at 2350 UTC 03 Dec 2016
Potential Impact None Slight Moderate High
Time2251Z 04/00Z 04/01Z 04/02Z 04/03Z 04/04Z 04/05Z 04/06Z 04/07Z 04/08Z 04/09Z 04/10Z 04/11Z 04/12Z
Type OBS PRVL PRVL PRVL PRVL PRVL PRVL PRVL PRVL PRVL PRVL PRVL PRVL PRVL
VIS 10 >6 >6 >6 >6 >6 >6 >6 >6 >6 >6 >6 >6 6
CIG 40 35 35 35 35 35 35 35 35 35 35 35 35 60
Cover BKN OVC OVC OVC OVC OVC OVC OVC OVC OVC OVC OVC OVC OVC
FltCat VFR VFR VFR VFR VFR VFR VFR VFR VFR VFR VFR VFR VFR VFR
WX -- -- -- -- -- -- -- -- -- -- -- -- -- -SN
WDir VRB VRB VRB VRB VRB VRB VRB VRB VRB VRB VRB VRB VRB 180
WSpd 0 3 3 3 3 3 3 3 3 3 3 3 3 5
WGst -- -- -- -- -- -- -- -- -- -- -- -- -- --

Raw TAF
KORD 032327Z 0400/0506 VRB03KT P6SM OVC035
  FM041200 18005KT 6SM -SN OVC060
  FM041400 17006KT 3SM -SN BKN025 OVC050
  FM041530 17007KT 1SM -SN SCT007 OVC015
  FM041700 17008KT 1SM -SN BR OVC005
  TEMPO 0418/0421 3/4SM -SN BR OVC004
  FM042200 18008KT 3SM -SN BR OVC005
  FM050000 21007KT 6SM -SN BR OVC008
  FM050300 24008KT P6SM OVC012


Raw METAR
KORD 032251Z 00000KT 10SM FEW030 BKN040 00/M05 A3030 RMK AO2 SLP268 T00001050
KORD 032151Z 26005KT 10SM FEW026 BKN033 BKN040 01/M05 A3032 RMK AO2 SLP274 T00061050
KORD 032110Z 26003KT 10SM SCT025 BKN031 01/M05 A3033 RMK AO2 T00061050
KORD 032051Z 26005KT 10SM BKN025 01/M04 A3033 RMK AO2 SLP278 T00061044 51000

METAR Board
Radar Display
Forecast Discussion